PWSweather.com
Personal Weather Stations
Station Observations
KMNMADEL2
West Of Madelia High School, Madelia, MN 56062

West Of Madelia High SchoolMadelia, MN 56062

Lat: 44.04636, Lon: -94.4163437

Elevation: 1006

Station Type: Wireless Davis Instruments Vantage Pro2 Plus

Latest ConditionsUpdated 6:20:01 PM CST Sunday, Nov 19, 2017
Currently Today's Max Today's Min Today's Average
Temperature 39.4°F4.1°C 49.8°F9.9°C 15.8°F-9.0°C 30.8°F-0.7°C
Dew Point 27.1°F-2.7°C 30.4°F-0.9°C 11.9°F-11.2°C 20.8°F-6.2°C
Winds 4.6 mph SW7.4 kmh SW 9.2 mph W14.8 kmh W - 3.2 mph 5.1 kmh
Wind Gusts 5.8 mph9.3 kmh 12.7 mph20.4 kmh - -
Humidity 61% 86% 45% 69%
Pressure 29.92 in1013.2 mb 30.18 in1022.0 mb 29.92 in1013.2 mb -
Hour Temp Dew Point Humidity Winds Wind Gusts Pressure Precip Precip Rate Daily Precip Total
06:20 PM 39.4°F4.1°C 27.1°F-2.7°C 61% 4.6 mph SW7.4 kmh SW 5.8 mph9.3 kmh 29.92 in1013.2 mb - 0.00 in0.0 mm 0.00 in0.0 mm
06:15 PM 39.6°F4.2°C 27.2°F-2.7°C 61% 3.5 mph SW5.6 kmh SW 4.6 mph7.4 kmh 29.92 in1013.2 mb - 0.00 in0.0 mm 0.00 in0.0 mm
06:10 PM 39.7°F4.3°C 26.9°F-2.8°C 60% 3.5 mph SW5.6 kmh SW 3.5 mph5.6 kmh 29.92 in1013.2 mb - 0.00 in0.0 mm 0.00 in0.0 mm
06:00 PM 40.3°F4.6°C 27.1°F-2.7°C 59% 3.5 mph SW5.6 kmh SW 3.5 mph5.6 kmh 29.92 in1013.2 mb - 0.00 in0.0 mm 0.00 in0.0 mm
05:55 PM 40.4°F4.7°C 27.2°F-2.7°C 59% 4.6 mph SSW7.4 kmh SSW 4.6 mph7.4 kmh 29.93 in1013.5 mb - 0.00 in0.0 mm 0.00 in0.0 mm
05:50 PM 40.7°F4.8°C 27.1°F-2.7°C 58% 2.3 mph SW3.7 kmh SW 3.5 mph5.6 kmh 29.93 in1013.5 mb - 0.00 in0.0 mm 0.00 in0.0 mm
05:45 PM 41.2°F5.1°C 27.1°F-2.7°C 57% 2.3 mph WSW3.7 kmh WSW 3.5 mph5.6 kmh 29.93 in1013.5 mb - 0.00 in0.0 mm 0.00 in0.0 mm
05:40 PM 41.6°F5.3°C 27.5°F-2.5°C 57% 2.3 mph WSW3.7 kmh WSW 3.5 mph5.6 kmh 29.93 in1013.5 mb - 0.00 in0.0 mm 0.00 in0.0 mm
05:35 PM 41.7°F5.4°C 27.6°F-2.4°C 57% 1.2 mph WSW1.9 kmh WSW 3.5 mph5.6 kmh 29.92 in1013.2 mb - 0.00 in0.0 mm 0.00 in0.0 mm
05:30 PM 42.3°F5.7°C 27.7°F-2.4°C 56% 1.2 mph WSW1.9 kmh WSW 3.5 mph5.6 kmh 29.93 in1013.5 mb - 0.00 in0.0 mm 0.00 in0.0 mm
05:25 PM 42.5°F5.8°C 27.9°F-2.3°C 56% 2.3 mph WSW3.7 kmh WSW 3.5 mph5.6 kmh 29.92 in1013.2 mb - 0.00 in0.0 mm 0.00 in0.0 mm
05:20 PM 42.9°F6.1°C 27.8°F-2.3°C 55% 2.3 mph WSW3.7 kmh WSW 3.5 mph5.6 kmh 29.93 in1013.5 mb - 0.00 in0.0 mm 0.00 in0.0 mm
05:15 PM 43.4°F6.3°C 28.3°F-2.1°C 55% 2.3 mph WSW3.7 kmh WSW 3.5 mph5.6 kmh 29.93 in1013.5 mb - 0.00 in0.0 mm 0.00 in0.0 mm
05:10 PM 43.8°F6.6°C 28.2°F-2.1°C 54% 2.3 mph WSW3.7 kmh WSW 3.5 mph5.6 kmh 29.93 in1013.5 mb - 0.00 in0.0 mm 0.00 in0.0 mm
05:00 PM 44.6°F7.0°C 28.5°F-1.9°C 53% 2.3 mph WSW3.7 kmh WSW 3.5 mph5.6 kmh 29.93 in1013.5 mb - 0.00 in0.0 mm 0.00 in0.0 mm
04:55 PM 44.8°F7.1°C 28.7°F-1.8°C 53% 3.5 mph WSW5.6 kmh WSW 3.5 mph5.6 kmh 29.93 in1013.5 mb - 0.00 in0.0 mm 0.00 in0.0 mm
04:50 PM 45.1°F7.3°C 29.0°F-1.7°C 53% 2.3 mph WSW3.7 kmh WSW 3.5 mph5.6 kmh 29.93 in1013.5 mb - 0.00 in0.0 mm 0.00 in0.0 mm
04:45 PM 45.3°F7.4°C 29.1°F-1.6°C 53% 3.5 mph SW5.6 kmh SW 3.5 mph5.6 kmh 29.93 in1013.5 mb - 0.00 in0.0 mm 0.00 in0.0 mm
04:40 PM 45.6°F7.6°C 29.0°F-1.7°C 52% 2.3 mph WSW3.7 kmh WSW 3.5 mph5.6 kmh 29.93 in1013.5 mb - 0.00 in0.0 mm 0.00 in0.0 mm
04:35 PM 46.0°F7.8°C 28.9°F-1.7°C 51% 2.3 mph WSW3.7 kmh WSW 3.5 mph5.6 kmh 29.93 in1013.5 mb - 0.00 in0.0 mm 0.00 in0.0 mm
04:30 PM 46.5°F8.1°C 29.3°F-1.5°C 51% 2.3 mph WSW3.7 kmh WSW 3.5 mph5.6 kmh 29.93 in1013.5 mb - 0.00 in0.0 mm 0.00 in0.0 mm
04:25 PM 47.0°F8.3°C 29.3°F-1.5°C 50% 3.5 mph W5.6 kmh W 5.8 mph9.3 kmh 29.93 in1013.5 mb - 0.00 in0.0 mm 0.00 in0.0 mm
04:20 PM 47.5°F8.6°C 29.3°F-1.5°C 49% 2.3 mph WSW3.7 kmh WSW 3.5 mph5.6 kmh 29.94 in1013.9 mb - 0.00 in0.0 mm 0.00 in0.0 mm
04:15 PM 47.9°F8.8°C 29.6°F-1.3°C 49% 3.5 mph WSW5.6 kmh WSW 4.6 mph7.4 kmh 29.94 in1013.9 mb - 0.00 in0.0 mm 0.00 in0.0 mm
04:10 PM 48.1°F8.9°C 29.8°F-1.2°C 49% 3.5 mph WSW5.6 kmh WSW 5.8 mph9.3 kmh 29.94 in1013.9 mb - 0.00 in0.0 mm 0.00 in0.0 mm
04:00 PM 48.8°F9.3°C 30.0°F-1.1°C 48% 3.5 mph WSW5.6 kmh WSW 3.5 mph5.6 kmh 29.94 in1013.9 mb - 0.00 in0.0 mm 0.00 in0.0 mm
03:55 PM 49.1°F9.5°C 29.7°F-1.3°C 47% 3.5 mph WSW5.6 kmh WSW 3.5 mph5.6 kmh 29.94 in1013.9 mb - 0.00 in0.0 mm 0.00 in0.0 mm
03:50 PM 49.2°F9.6°C 29.8°F-1.2°C 47% 4.6 mph WSW7.4 kmh WSW 4.6 mph7.4 kmh 29.94 in1013.9 mb - 0.00 in0.0 mm 0.00 in0.0 mm
03:45 PM 49.2°F9.6°C 29.3°F-1.5°C 46% 3.5 mph WSW5.6 kmh WSW 4.6 mph7.4 kmh 29.94 in1013.9 mb - 0.00 in0.0 mm 0.00 in0.0 mm
03:40 PM 49.3°F9.6°C 29.4°F-1.4°C 46% 5.8 mph WSW9.3 kmh WSW 6.9 mph11.1 kmh 29.94 in1013.9 mb - 0.00 in0.0 mm 0.00 in0.0 mm
03:35 PM 49.3°F9.6°C 29.4°F-1.4°C 46% 4.6 mph WSW7.4 kmh WSW 8.1 mph13.0 kmh 29.94 in1013.9 mb - 0.00 in0.0 mm 0.00 in0.0 mm
03:30 PM 49.1°F9.5°C 29.2°F-1.6°C 46% 4.6 mph WSW7.4 kmh WSW 6.9 mph11.1 kmh 29.94 in1013.9 mb - 0.00 in0.0 mm 0.00 in0.0 mm
03:25 PM 49.0°F9.4°C 29.6°F-1.3°C 47% 4.6 mph WSW7.4 kmh WSW 8.1 mph13.0 kmh 29.94 in1013.9 mb - 0.00 in0.0 mm 0.00 in0.0 mm
03:20 PM 49.2°F9.6°C 29.3°F-1.5°C 46% 4.6 mph WSW7.4 kmh WSW 5.8 mph9.3 kmh 29.94 in1013.9 mb - 0.00 in0.0 mm 0.00 in0.0 mm
03:15 PM 49.4°F9.7°C 29.5°F-1.4°C 46% 4.6 mph WSW7.4 kmh WSW 8.1 mph13.0 kmh 29.94 in1013.9 mb - 0.00 in0.0 mm 0.00 in0.0 mm
03:10 PM 49.6°F9.8°C 29.6°F-1.3°C 46% 5.8 mph W9.3 kmh W 8.1 mph13.0 kmh 29.94 in1013.9 mb - 0.00 in0.0 mm 0.00 in0.0 mm
03:00 PM 49.8°F9.9°C 30.4°F-0.9°C 47% 4.6 mph WSW7.4 kmh WSW 6.9 mph11.1 kmh 29.95 in1014.2 mb - 0.00 in0.0 mm 0.00 in0.0 mm
02:55 PM 49.8°F9.9°C 29.8°F-1.2°C 46% 4.6 mph W7.4 kmh W 8.1 mph13.0 kmh 29.95 in1014.2 mb - 0.00 in0.0 mm 0.00 in0.0 mm
02:50 PM 49.7°F9.8°C 29.7°F-1.3°C 46% 4.6 mph WSW7.4 kmh WSW 10.4 mph16.7 kmh 29.95 in1014.2 mb - 0.00 in0.0 mm 0.00 in0.0 mm
02:45 PM 49.6°F9.8°C 29.6°F-1.3°C 46% 4.6 mph W7.4 kmh W 6.9 mph11.1 kmh 29.96 in1014.6 mb - 0.00 in0.0 mm 0.00 in0.0 mm
02:40 PM 49.4°F9.7°C 29.5°F-1.4°C 46% 4.6 mph WSW7.4 kmh WSW 9.2 mph14.8 kmh 29.96 in1014.6 mb - 0.00 in0.0 mm 0.00 in0.0 mm
02:35 PM 49.5°F9.7°C 29.6°F-1.3°C 46% 4.6 mph WSW7.4 kmh WSW 10.4 mph16.7 kmh 29.96 in1014.6 mb - 0.00 in0.0 mm 0.00 in0.0 mm
02:30 PM 49.7°F9.8°C 29.2°F-1.6°C 45% 5.8 mph WSW9.3 kmh WSW 8.1 mph13.0 kmh 29.96 in1014.6 mb - 0.00 in0.0 mm 0.00 in0.0 mm
02:25 PM 49.6°F9.8°C 29.6°F-1.3°C 46% 6.9 mph W11.1 kmh W 11.5 mph18.5 kmh 29.97 in1014.9 mb - 0.00 in0.0 mm 0.00 in0.0 mm
02:20 PM 49.2°F9.6°C 29.8°F-1.2°C 47% 5.8 mph W9.3 kmh W 11.5 mph18.5 kmh 29.97 in1014.9 mb - 0.00 in0.0 mm 0.00 in0.0 mm
02:15 PM 48.9°F9.4°C 30.1°F-1.1°C 48% 4.6 mph WSW7.4 kmh WSW 9.2 mph14.8 kmh 29.97 in1014.9 mb - 0.00 in0.0 mm 0.00 in0.0 mm
02:10 PM 48.9°F9.4°C 29.5°F-1.4°C 47% 5.8 mph W9.3 kmh W 6.9 mph11.1 kmh 29.97 in1014.9 mb - 0.00 in0.0 mm 0.00 in0.0 mm
02:00 PM 48.9°F9.4°C 30.0°F-1.1°C 48% 5.8 mph WSW9.3 kmh WSW 9.2 mph14.8 kmh 29.97 in1014.9 mb - 0.00 in0.0 mm 0.00 in0.0 mm
01:55 PM 48.6°F9.2°C 29.8°F-1.2°C 48% 6.9 mph WSW11.1 kmh WSW 8.1 mph13.0 kmh 29.97 in1014.9 mb - 0.00 in0.0 mm 0.00 in0.0 mm
01:50 PM 48.5°F9.2°C 29.7°F-1.3°C 48% 6.9 mph WSW11.1 kmh WSW 12.7 mph20.4 kmh 29.98 in1015.2 mb - 0.00 in0.0 mm 0.00 in0.0 mm
01:45 PM 48.3°F9.1°C 30.0°F-1.1°C 49% 5.8 mph W9.3 kmh W 10.4 mph16.7 kmh 29.98 in1015.2 mb - 0.00 in0.0 mm 0.00 in0.0 mm
01:40 PM 48.3°F9.1°C 29.5°F-1.4°C 48% 8.1 mph WNW13.0 kmh WNW 10.4 mph16.7 kmh 29.98 in1015.2 mb - 0.00 in0.0 mm 0.00 in0.0 mm
01:35 PM 48.4°F9.1°C 29.6°F-1.3°C 48% 6.9 mph W11.1 kmh W 11.5 mph18.5 kmh 29.98 in1015.2 mb - 0.00 in0.0 mm 0.00 in0.0 mm
01:30 PM 48.6°F9.2°C 29.8°F-1.2°C 48% 9.2 mph WSW14.8 kmh WSW 11.5 mph18.5 kmh 29.99 in1015.6 mb - 0.00 in0.0 mm 0.00 in0.0 mm
01:25 PM 48.4°F9.1°C 30.1°F-1.1°C 49% 8.1 mph W13.0 kmh W 11.5 mph18.5 kmh 29.99 in1015.6 mb - 0.00 in0.0 mm 0.00 in0.0 mm
01:20 PM 48.1°F8.9°C 29.8°F-1.2°C 49% 4.6 mph WSW7.4 kmh WSW 6.9 mph11.1 kmh 29.99 in1015.6 mb - 0.00 in0.0 mm 0.00 in0.0 mm
01:15 PM 48.1°F8.9°C 29.8°F-1.2°C 49% 8.1 mph WSW13.0 kmh WSW 10.4 mph16.7 kmh 30.00 in1015.9 mb - 0.00 in0.0 mm 0.00 in0.0 mm
01:10 PM 47.9°F8.8°C 29.7°F-1.3°C 49% 8.1 mph W13.0 kmh W 11.5 mph18.5 kmh 30.00 in1015.9 mb - 0.00 in0.0 mm 0.00 in0.0 mm
01:00 PM 47.4°F8.6°C 29.7°F-1.3°C 50% 6.9 mph W11.1 kmh W 11.5 mph18.5 kmh 30.00 in1015.9 mb - 0.00 in0.0 mm 0.00 in0.0 mm
12:55 PM 47.0°F8.3°C 29.8°F-1.2°C 51% 4.6 mph WSW7.4 kmh WSW 11.5 mph18.5 kmh 30.01 in1016.3 mb - 0.00 in0.0 mm 0.00 in0.0 mm
12:50 PM 46.6°F8.1°C 29.4°F-1.4°C 51% 4.6 mph WSW7.4 kmh WSW 11.5 mph18.5 kmh 30.01 in1016.3 mb - 0.00 in0.0 mm 0.00 in0.0 mm
12:45 PM 46.5°F8.1°C 29.4°F-1.4°C 51% 4.6 mph WSW7.4 kmh WSW 6.9 mph11.1 kmh 30.01 in1016.3 mb - 0.00 in0.0 mm 0.00 in0.0 mm
12:40 PM 46.4°F8.0°C 29.2°F-1.6°C 51% 5.8 mph W9.3 kmh W 6.9 mph11.1 kmh 30.01 in1016.3 mb - 0.00 in0.0 mm 0.00 in0.0 mm
12:35 PM 46.3°F7.9°C 29.2°F-1.6°C 51% 9.2 mph W14.8 kmh W 11.5 mph18.5 kmh 30.02 in1016.6 mb - 0.00 in0.0 mm 0.00 in0.0 mm
12:30 PM 45.6°F7.6°C 29.0°F-1.7°C 52% 6.9 mph W11.1 kmh W 9.2 mph14.8 kmh 30.02 in1016.6 mb - 0.00 in0.0 mm 0.00 in0.0 mm
12:25 PM 45.1°F7.3°C 29.0°F-1.7°C 53% 6.9 mph WSW11.1 kmh WSW 9.2 mph14.8 kmh 30.02 in1016.6 mb - 0.00 in0.0 mm 0.00 in0.0 mm
12:20 PM 44.6°F7.0°C 29.0°F-1.7°C 54% 4.6 mph WSW7.4 kmh WSW 5.8 mph9.3 kmh 30.03 in1016.9 mb - 0.00 in0.0 mm 0.00 in0.0 mm
12:15 PM 44.1°F6.7°C 28.9°F-1.7°C 55% 4.6 mph WSW7.4 kmh WSW 9.2 mph14.8 kmh 30.03 in1016.9 mb - 0.00 in0.0 mm 0.00 in0.0 mm
12:10 PM 43.6°F6.4°C 28.5°F-1.9°C 55% 4.6 mph WSW7.4 kmh WSW 4.6 mph7.4 kmh 30.04 in1017.3 mb - 0.00 in0.0 mm 0.00 in0.0 mm
12:00 PM 42.7°F5.9°C 28.1°F-2.2°C 56% 3.5 mph WSW5.6 kmh WSW 6.9 mph11.1 kmh 30.04 in1017.3 mb - 0.00 in0.0 mm 0.00 in0.0 mm
11:55 AM 42.3°F5.7°C 28.1°F-2.2°C 57% 4.6 mph WSW7.4 kmh WSW 8.1 mph13.0 kmh 30.05 in1017.6 mb - 0.00 in0.0 mm 0.00 in0.0 mm
11:50 AM 41.6°F5.3°C 27.5°F-2.5°C 57% 4.6 mph WSW7.4 kmh WSW 5.8 mph9.3 kmh 30.05 in1017.6 mb - 0.00 in0.0 mm 0.00 in0.0 mm
11:45 AM 41.2°F5.1°C 27.1°F-2.7°C 57% 3.5 mph W5.6 kmh W 6.9 mph11.1 kmh 30.06 in1017.9 mb - 0.00 in0.0 mm 0.00 in0.0 mm
11:40 AM 41.7°F5.4°C 27.1°F-2.7°C 56% 4.6 mph WSW7.4 kmh WSW 8.1 mph13.0 kmh 30.06 in1017.9 mb - 0.00 in0.0 mm 0.00 in0.0 mm
11:35 AM 41.2°F5.1°C 27.1°F-2.7°C 57% 5.8 mph W9.3 kmh W 9.2 mph14.8 kmh 30.06 in1017.9 mb - 0.00 in0.0 mm 0.00 in0.0 mm
11:30 AM 40.6°F4.8°C 27.0°F-2.8°C 58% 4.6 mph WSW7.4 kmh WSW 6.9 mph11.1 kmh 30.06 in1017.9 mb - 0.00 in0.0 mm 0.00 in0.0 mm
11:25 AM 39.9°F4.4°C 26.7°F-2.9°C 59% 4.6 mph WSW7.4 kmh WSW 5.8 mph9.3 kmh 30.06 in1017.9 mb - 0.00 in0.0 mm 0.00 in0.0 mm
11:20 AM 39.2°F4.0°C 26.1°F-3.3°C 59% 5.8 mph WSW9.3 kmh WSW 6.9 mph11.1 kmh 30.07 in1018.3 mb - 0.00 in0.0 mm 0.00 in0.0 mm
11:15 AM 38.7°F3.7°C 26.0°F-3.3°C 60% 5.8 mph WSW9.3 kmh WSW 8.1 mph13.0 kmh 30.07 in1018.3 mb - 0.00 in0.0 mm 0.00 in0.0 mm
11:10 AM 38.0°F3.3°C 25.8°F-3.4°C 61% 5.8 mph WSW9.3 kmh WSW 10.4 mph16.7 kmh 30.08 in1018.6 mb - 0.00 in0.0 mm 0.00 in0.0 mm
11:00 AM 37.4°F3.0°C 25.6°F-3.6°C 62% 6.9 mph W11.1 kmh W 11.5 mph18.5 kmh 30.08 in1018.6 mb - 0.00 in0.0 mm 0.00 in0.0 mm
10:55 AM 36.3°F2.4°C 25.3°F-3.7°C 64% 3.5 mph WSW5.6 kmh WSW 5.8 mph9.3 kmh 30.08 in1018.6 mb - 0.00 in0.0 mm 0.00 in0.0 mm
10:50 AM 35.6°F2.0°C 24.6°F-4.1°C 64% 4.6 mph WSW7.4 kmh WSW 6.9 mph11.1 kmh 30.09 in1019.0 mb - 0.00 in0.0 mm 0.00 in0.0 mm
10:45 AM 34.9°F1.6°C 24.3°F-4.3°C 65% 3.5 mph SW5.6 kmh SW 3.5 mph5.6 kmh 30.09 in1019.0 mb - 0.00 in0.0 mm 0.00 in0.0 mm
10:40 AM 34.1°F1.2°C 23.9°F-4.5°C 66% 2.3 mph WSW3.7 kmh WSW 5.8 mph9.3 kmh 30.09 in1019.0 mb - 0.00 in0.0 mm 0.00 in0.0 mm
10:35 AM 33.4°F0.8°C 23.6°F-4.7°C 67% 3.5 mph WSW5.6 kmh WSW 3.5 mph5.6 kmh 30.10 in1019.3 mb - 0.00 in0.0 mm 0.00 in0.0 mm
10:30 AM 33.0°F0.6°C 23.2°F-4.9°C 67% 4.6 mph WSW7.4 kmh WSW 6.9 mph11.1 kmh 30.10 in1019.3 mb - 0.00 in0.0 mm 0.00 in0.0 mm
10:25 AM 32.7°F0.4°C 23.3°F-4.8°C 68% 3.5 mph WSW5.6 kmh WSW 4.6 mph7.4 kmh 30.10 in1019.3 mb - 0.00 in0.0 mm 0.00 in0.0 mm
10:20 AM 32.5°F0.3°C 23.1°F-4.9°C 68% 3.5 mph WSW5.6 kmh WSW 4.6 mph7.4 kmh 30.10 in1019.3 mb - 0.00 in0.0 mm 0.00 in0.0 mm
10:15 AM 32.2°F0.1°C 23.2°F-4.9°C 69% 3.5 mph WSW5.6 kmh WSW 3.5 mph5.6 kmh 30.10 in1019.3 mb - 0.00 in0.0 mm 0.00 in0.0 mm
10:10 AM 31.9°F-0.1°C 23.2°F-4.9°C 70% 3.5 mph WSW5.6 kmh WSW 4.6 mph7.4 kmh 30.10 in1019.3 mb - 0.00 in0.0 mm 0.00 in0.0 mm
10:00 AM 30.7°F-0.7°C 23.4°F-4.8°C 74% 3.5 mph SW5.6 kmh SW 5.8 mph9.3 kmh 30.10 in1019.3 mb - 0.00 in0.0 mm 0.00 in0.0 mm
09:55 AM 29.9°F-1.2°C 22.7°F-5.2°C 74% 2.3 mph SW3.7 kmh SW 3.5 mph5.6 kmh 30.10 in1019.3 mb - 0.00 in0.0 mm 0.00 in0.0 mm
09:50 AM 29.4°F-1.4°C 22.4°F-5.3°C 75% 3.5 mph SW5.6 kmh SW 3.5 mph5.6 kmh 30.10 in1019.3 mb - 0.00 in0.0 mm 0.00 in0.0 mm
09:45 AM 29.0°F-1.7°C 22.3°F-5.4°C 76% 2.3 mph SW3.7 kmh SW 3.5 mph5.6 kmh 30.10 in1019.3 mb - 0.00 in0.0 mm 0.00 in0.0 mm
09:40 AM 28.6°F-1.9°C 22.3°F-5.4°C 77% 3.5 mph SW5.6 kmh SW 4.6 mph7.4 kmh 30.11 in1019.6 mb - 0.00 in0.0 mm 0.00 in0.0 mm
09:35 AM 28.0°F-2.2°C 21.7°F-5.7°C 77% 2.3 mph SW3.7 kmh SW 3.5 mph5.6 kmh 30.11 in1019.6 mb - 0.00 in0.0 mm 0.00 in0.0 mm
09:30 AM 27.7°F-2.4°C 21.4°F-5.9°C 77% 3.5 mph WSW5.6 kmh WSW 4.6 mph7.4 kmh 30.11 in1019.6 mb - 0.00 in0.0 mm 0.00 in0.0 mm
09:25 AM 27.4°F-2.6°C 21.4°F-5.9°C 78% 2.3 mph WSW3.7 kmh WSW 3.5 mph5.6 kmh 30.12 in1020.0 mb - 0.00 in0.0 mm 0.00 in0.0 mm
09:20 AM 27.1°F-2.7°C 21.2°F-6.0°C 78% 2.3 mph WSW3.7 kmh WSW 3.5 mph5.6 kmh 30.12 in1020.0 mb - 0.00 in0.0 mm 0.00 in0.0 mm
09:15 AM 26.7°F-2.9°C 21.4°F-5.9°C 80% 3.5 mph WSW5.6 kmh WSW 3.5 mph5.6 kmh 30.12 in1020.0 mb - 0.00 in0.0 mm 0.00 in0.0 mm
09:10 AM 26.2°F-3.2°C 21.2°F-6.0°C 81% 2.3 mph WSW3.7 kmh WSW 3.5 mph5.6 kmh 30.12 in1020.0 mb - 0.00 in0.0 mm 0.00 in0.0 mm
09:00 AM 25.1°F-3.8°C 20.6°F-6.3°C 83% 1.2 mph W1.9 kmh W 3.5 mph5.6 kmh 30.13 in1020.3 mb - 0.00 in0.0 mm 0.00 in0.0 mm
08:55 AM 24.6°F-4.1°C 20.2°F-6.6°C 83% 2.3 mph W3.7 kmh W 3.5 mph5.6 kmh 30.13 in1020.3 mb - 0.00 in0.0 mm 0.00 in0.0 mm
08:50 AM 24.0°F-4.4°C 19.3°F-7.1°C 82% 2.3 mph W3.7 kmh W 3.5 mph5.6 kmh 30.13 in1020.3 mb - 0.00 in0.0 mm 0.00 in0.0 mm
08:45 AM 23.7°F-4.6°C 19.3°F-7.1°C 83% 2.3 mph W3.7 kmh W 3.5 mph5.6 kmh 30.13 in1020.3 mb - 0.00 in0.0 mm 0.00 in0.0 mm
08:40 AM 23.4°F-4.8°C 18.7°F-7.4°C 82% Calm Calm -- 30.13 in1020.3 mb - 0.00 in0.0 mm 0.00 in0.0 mm
08:35 AM 23.0°F-5.0°C 18.6°F-7.4°C 83% 1.2 mph W1.9 kmh W 2.3 mph3.7 kmh 30.13 in1020.3 mb - 0.00 in0.0 mm 0.00 in0.0 mm
08:30 AM 22.7°F-5.2°C 18.3°F-7.6°C 83% Calm Calm 2.3 mph3.7 kmh 30.13 in1020.3 mb - 0.00 in0.0 mm 0.00 in0.0 mm
08:25 AM 22.3°F-5.4°C 18.2°F-7.7°C 84% 2.3 mph W3.7 kmh W 3.5 mph5.6 kmh 30.13 in1020.3 mb - 0.00 in0.0 mm 0.00 in0.0 mm
08:20 AM 21.8°F-5.7°C 18.0°F-7.8°C 85% 2.3 mph W3.7 kmh W 3.5 mph5.6 kmh 30.13 in1020.3 mb - 0.00 in0.0 mm 0.00 in0.0 mm
08:15 AM 21.0°F-6.1°C 17.4°F-8.1°C 86% 2.3 mph W3.7 kmh W 3.5 mph5.6 kmh 30.13 in1020.3 mb - 0.00 in0.0 mm 0.00 in0.0 mm
08:10 AM 20.0°F-6.7°C 16.4°F-8.7°C 86% Calm Calm -- 30.13 in1020.3 mb - 0.00 in0.0 mm 0.00 in0.0 mm
08:00 AM 18.8°F-7.3°C 15.3°F-9.3°C 86% Calm Calm -- 30.13 in1020.3 mb - 0.00 in0.0 mm 0.00 in0.0 mm
07:55 AM 18.4°F-7.6°C 14.9°F-9.5°C 86% Calm Calm -- 30.13 in1020.3 mb - 0.00 in0.0 mm 0.00 in0.0 mm
07:50 AM 17.8°F-7.9°C 14.3°F-9.8°C 86% 1.2 mph W1.9 kmh W 2.3 mph3.7 kmh 30.14 in1020.7 mb - 0.00 in0.0 mm 0.00 in0.0 mm
07:45 AM 17.3°F-8.2°C 13.5°F-10.3°C 85% Calm Calm -- 30.14 in1020.7 mb - 0.00 in0.0 mm 0.00 in0.0 mm
07:40 AM 17.1°F-8.3°C 13.4°F-10.3°C 85% Calm Calm -- 30.14 in1020.7 mb - 0.00 in0.0 mm 0.00 in0.0 mm
07:35 AM 17.2°F-8.2°C 13.4°F-10.3°C 85% Calm Calm -- 30.14 in1020.7 mb - 0.00 in0.0 mm 0.00 in0.0 mm
07:30 AM 17.1°F-8.3°C 13.4°F-10.3°C 85% Calm Calm -- 30.14 in1020.7 mb - 0.00 in0.0 mm 0.00 in0.0 mm
07:25 AM 17.0°F-8.3°C 13.3°F-10.4°C 85% Calm Calm -- 30.14 in1020.7 mb - 0.00 in0.0 mm 0.00 in0.0 mm
07:20 AM 17.2°F-8.2°C 13.2°F-10.4°C 84% Calm Calm -- 30.14 in1020.7 mb - 0.00 in0.0 mm 0.00 in0.0 mm
07:15 AM 17.7°F-7.9°C 13.7°F-10.2°C 84% Calm Calm -- 30.14 in1020.7 mb - 0.00 in0.0 mm 0.00 in0.0 mm
07:10 AM 17.9°F-7.8°C 13.9°F-10.1°C 84% Calm Calm 1.2 mph1.9 kmh 30.14 in1020.7 mb - 0.00 in0.0 mm 0.00 in0.0 mm
07:00 AM 18.0°F-7.8°C 14.0°F-10.0°C 84% Calm Calm -- 30.14 in1020.7 mb - 0.00 in0.0 mm 0.00 in0.0 mm
06:55 AM 18.0°F-7.8°C 14.0°F-10.0°C 84% Calm Calm -- 30.14 in1020.7 mb - 0.00 in0.0 mm 0.00 in0.0 mm
06:50 AM 18.2°F-7.7°C 13.9°F-10.1°C 83% Calm Calm -- 30.14 in1020.7 mb - 0.00 in0.0 mm 0.00 in0.0 mm
06:45 AM 18.3°F-7.6°C 14.3°F-9.8°C 84% Calm Calm -- 30.14 in1020.7 mb - 0.00 in0.0 mm 0.00 in0.0 mm
06:40 AM 18.3°F-7.6°C 14.3°F-9.8°C 84% Calm Calm -- 30.14 in1020.7 mb - 0.00 in0.0 mm 0.00 in0.0 mm
06:35 AM 18.4°F-7.6°C 14.4°F-9.8°C 84% 1.2 mph WNW1.9 kmh WNW 3.5 mph5.6 kmh 30.14 in1020.7 mb - 0.00 in0.0 mm 0.00 in0.0 mm
06:30 AM 18.3°F-7.6°C 14.3°F-9.8°C 84% 1.2 mph WNW1.9 kmh WNW 2.3 mph3.7 kmh 30.15 in1021.0 mb - 0.00 in0.0 mm 0.00 in0.0 mm
06:25 AM 18.2°F-7.7°C 14.2°F-9.9°C 84% Calm Calm -- 30.14 in1020.7 mb - 0.00 in0.0 mm 0.00 in0.0 mm
06:20 AM 18.1°F-7.7°C 14.3°F-9.8°C 85% 1.2 mph WNW1.9 kmh WNW 2.3 mph3.7 kmh 30.14 in1020.7 mb - 0.00 in0.0 mm 0.00 in0.0 mm
06:15 AM 17.9°F-7.8°C 14.1°F-9.9°C 85% 1.2 mph WNW1.9 kmh WNW 2.3 mph3.7 kmh 30.15 in1021.0 mb - 0.00 in0.0 mm 0.00 in0.0 mm
06:10 AM 17.4°F-8.1°C 13.7°F-10.2°C 85% 2.3 mph WNW3.7 kmh WNW 3.5 mph5.6 kmh 30.15 in1021.0 mb - 0.00 in0.0 mm 0.00 in0.0 mm
06:00 AM 16.5°F-8.6°C 12.8°F-10.7°C 85% 1.2 mph WNW1.9 kmh WNW 2.3 mph3.7 kmh 30.14 in1020.7 mb - 0.00 in0.0 mm 0.00 in0.0 mm
05:55 AM 16.2°F-8.8°C 12.5°F-10.8°C 85% Calm Calm -- 30.15 in1021.0 mb - 0.00 in0.0 mm 0.00 in0.0 mm
05:50 AM 16.1°F-8.8°C 12.4°F-10.9°C 85% Calm Calm -- 30.14 in1020.7 mb - 0.00 in0.0 mm 0.00 in0.0 mm
05:45 AM 15.8°F-9.0°C 12.1°F-11.1°C 85% Calm Calm -- 30.14 in1020.7 mb - 0.00 in0.0 mm 0.00 in0.0 mm
05:40 AM 15.9°F-8.9°C 11.9°F-11.2°C 84% Calm Calm -- 30.14 in1020.7 mb - 0.00 in0.0 mm 0.00 in0.0 mm
05:35 AM 16.0°F-8.9°C 12.0°F-11.1°C 84% Calm Calm -- 30.13 in1020.3 mb - 0.00 in0.0 mm 0.00 in0.0 mm
05:30 AM 16.2°F-8.8°C 12.2°F-11.0°C 84% Calm Calm -- 30.14 in1020.7 mb - 0.00 in0.0 mm 0.00 in0.0 mm
05:25 AM 16.4°F-8.7°C 12.4°F-10.9°C 84% Calm Calm -- 30.14 in1020.7 mb - 0.00 in0.0 mm 0.00 in0.0 mm
05:20 AM 16.4°F-8.7°C 12.4°F-10.9°C 84% Calm Calm 1.2 mph1.9 kmh 30.14 in1020.7 mb - 0.00 in0.0 mm 0.00 in0.0 mm
05:15 AM 16.4°F-8.7°C 12.4°F-10.9°C 84% Calm Calm -- 30.14 in1020.7 mb - 0.00 in0.0 mm 0.00 in0.0 mm
05:10 AM 16.3°F-8.7°C 12.3°F-10.9°C 84% Calm Calm -- 30.14 in1020.7 mb - 0.00 in0.0 mm 0.00 in0.0 mm
05:00 AM 16.5°F-8.6°C 12.5°F-10.8°C 84% Calm Calm -- 30.14 in1020.7 mb - 0.00 in0.0 mm 0.00 in0.0 mm
04:55 AM 16.6°F-8.6°C 12.6°F-10.8°C 84% Calm Calm -- 30.14 in1020.7 mb - 0.00 in0.0 mm 0.00 in0.0 mm
04:50 AM 16.8°F-8.4°C 12.5°F-10.8°C 83% Calm Calm -- 30.13 in1020.3 mb - 0.00 in0.0 mm 0.00 in0.0 mm
04:45 AM 16.9°F-8.4°C 12.6°F-10.8°C 83% Calm Calm -- 30.14 in1020.7 mb - 0.00 in0.0 mm 0.00 in0.0 mm
04:40 AM 17.0°F-8.3°C 12.7°F-10.7°C 83% Calm Calm -- 30.14 in1020.7 mb - 0.00 in0.0 mm 0.00 in0.0 mm
04:35 AM 17.0°F-8.3°C 12.7°F-10.7°C 83% Calm Calm -- 30.14 in1020.7 mb - 0.00 in0.0 mm 0.00 in0.0 mm
04:30 AM 17.1°F-8.3°C 12.8°F-10.7°C 83% Calm Calm -- 30.14 in1020.7 mb - 0.00 in0.0 mm 0.00 in0.0 mm
04:25 AM 17.1°F-8.3°C 12.8°F-10.7°C 83% Calm Calm -- 30.14 in1020.7 mb - 0.00 in0.0 mm 0.00 in0.0 mm
04:20 AM 17.3°F-8.2°C 12.7°F-10.7°C 82% Calm Calm -- 30.14 in1020.7 mb - 0.00 in0.0 mm 0.00 in0.0 mm
04:15 AM 17.4°F-8.1°C 12.8°F-10.7°C 82% Calm Calm -- 30.14 in1020.7 mb - 0.00 in0.0 mm 0.00 in0.0 mm
04:10 AM 17.6°F-8.0°C 13.1°F-10.5°C 82% Calm Calm -- 30.15 in1021.0 mb - 0.00 in0.0 mm 0.00 in0.0 mm
04:00 AM 17.9°F-7.8°C 13.3°F-10.4°C 82% 1.2 mph WNW1.9 kmh WNW 3.5 mph5.6 kmh 30.15 in1021.0 mb - 0.00 in0.0 mm 0.00 in0.0 mm
03:55 AM 17.9°F-7.8°C 13.3°F-10.4°C 82% Calm Calm -- 30.16 in1021.3 mb - 0.00 in0.0 mm 0.00 in0.0 mm
03:50 AM 17.9°F-7.8°C 13.1°F-10.5°C 81% Calm Calm -- 30.16 in1021.3 mb - 0.00 in0.0 mm 0.00 in0.0 mm
03:45 AM 18.0°F-7.8°C 13.2°F-10.4°C 81% 2.3 mph WNW3.7 kmh WNW 3.5 mph5.6 kmh 30.16 in1021.3 mb - 0.00 in0.0 mm 0.00 in0.0 mm
03:40 AM 18.1°F-7.7°C 13.2°F-10.4°C 81% 2.3 mph WNW3.7 kmh WNW 3.5 mph5.6 kmh 30.16 in1021.3 mb - 0.00 in0.0 mm 0.00 in0.0 mm
03:35 AM 18.1°F-7.7°C 13.3°F-10.4°C 81% 2.3 mph WNW3.7 kmh WNW 3.5 mph5.6 kmh 30.16 in1021.3 mb - 0.00 in0.0 mm 0.00 in0.0 mm
03:30 AM 18.2°F-7.7°C 13.1°F-10.5°C 80% 2.3 mph WNW3.7 kmh WNW 3.5 mph5.6 kmh 30.16 in1021.3 mb - 0.00 in0.0 mm 0.00 in0.0 mm
03:25 AM 18.3°F-7.6°C 13.1°F-10.5°C 80% 2.3 mph WNW3.7 kmh WNW 3.5 mph5.6 kmh 30.16 in1021.3 mb - 0.00 in0.0 mm 0.00 in0.0 mm
03:20 AM 18.3°F-7.6°C 13.2°F-10.4°C 80% 3.5 mph WNW5.6 kmh WNW 3.5 mph5.6 kmh 30.17 in1021.7 mb - 0.00 in0.0 mm 0.00 in0.0 mm
03:15 AM 18.4°F-7.6°C 13.3°F-10.4°C 80% 2.3 mph WNW3.7 kmh WNW 3.5 mph5.6 kmh 30.17 in1021.7 mb - 0.00 in0.0 mm 0.00 in0.0 mm
03:10 AM 18.5°F-7.5°C 13.3°F-10.4°C 80% 3.5 mph WNW5.6 kmh WNW 3.5 mph5.6 kmh 30.17 in1021.7 mb - 0.00 in0.0 mm 0.00 in0.0 mm
03:00 AM 18.5°F-7.5°C 13.4°F-10.3°C 80% 3.5 mph W5.6 kmh W 6.9 mph11.1 kmh 30.18 in1022.0 mb - 0.00 in0.0 mm 0.00 in0.0 mm
02:55 AM 18.5°F-7.5°C 13.4°F-10.3°C 80% 2.3 mph NW3.7 kmh NW 3.5 mph5.6 kmh 30.17 in1021.7 mb - 0.00 in0.0 mm 0.00 in0.0 mm
02:50 AM 18.6°F-7.4°C 13.4°F-10.3°C 80% 3.5 mph NW5.6 kmh NW 3.5 mph5.6 kmh 30.18 in1022.0 mb - 0.00 in0.0 mm 0.00 in0.0 mm
02:45 AM 18.6°F-7.4°C 13.2°F-10.4°C 79% 3.5 mph WNW5.6 kmh WNW 3.5 mph5.6 kmh 30.18 in1022.0 mb - 0.00 in0.0 mm 0.00 in0.0 mm
02:40 AM 18.6°F-7.4°C 13.2°F-10.4°C 79% 3.5 mph WNW5.6 kmh WNW 3.5 mph5.6 kmh 30.17 in1021.7 mb - 0.00 in0.0 mm 0.00 in0.0 mm
02:35 AM 18.6°F-7.4°C 13.2°F-10.4°C 79% 4.6 mph WNW7.4 kmh WNW 5.8 mph9.3 kmh 30.18 in1022.0 mb - 0.00 in0.0 mm 0.00 in0.0 mm
02:30 AM 18.7°F-7.4°C 13.3°F-10.4°C 79% 3.5 mph NW5.6 kmh NW 4.6 mph7.4 kmh 30.17 in1021.7 mb - 0.00 in0.0 mm 0.00 in0.0 mm
02:25 AM 18.8°F-7.3°C 13.4°F-10.3°C 79% 3.5 mph WNW5.6 kmh WNW 6.9 mph11.1 kmh 30.17 in1021.7 mb - 0.00 in0.0 mm 0.00 in0.0 mm
02:20 AM 18.9°F-7.3°C 13.5°F-10.3°C 79% 4.6 mph WNW7.4 kmh WNW 6.9 mph11.1 kmh 30.17 in1021.7 mb - 0.00 in0.0 mm 0.00 in0.0 mm
02:15 AM 18.9°F-7.3°C 13.2°F-10.4°C 78% 4.6 mph WNW7.4 kmh WNW 8.1 mph13.0 kmh 30.16 in1021.3 mb - 0.00 in0.0 mm 0.00 in0.0 mm
02:10 AM 19.0°F-7.2°C 13.5°F-10.3°C 79% 3.5 mph W5.6 kmh W 6.9 mph11.1 kmh 30.16 in1021.3 mb - 0.00 in0.0 mm 0.00 in0.0 mm
02:00 AM 19.0°F-7.2°C 13.6°F-10.2°C 79% 2.3 mph NW3.7 kmh NW 3.5 mph5.6 kmh 30.16 in1021.3 mb - 0.00 in0.0 mm 0.00 in0.0 mm
01:55 AM 19.0°F-7.2°C 13.6°F-10.2°C 79% 3.5 mph WNW5.6 kmh WNW 8.1 mph13.0 kmh 30.16 in1021.3 mb - 0.00 in0.0 mm 0.00 in0.0 mm
01:50 AM 19.0°F-7.2°C 13.6°F-10.2°C 79% 4.6 mph WNW7.4 kmh WNW 5.8 mph9.3 kmh 30.16 in1021.3 mb - 0.00 in0.0 mm 0.00 in0.0 mm
01:45 AM 19.1°F-7.2°C 13.6°F-10.2°C 79% 4.6 mph NW7.4 kmh NW 5.8 mph9.3 kmh 30.16 in1021.3 mb - 0.00 in0.0 mm 0.00 in0.0 mm
01:40 AM 19.1°F-7.2°C 13.7°F-10.2°C 79% 4.6 mph WNW7.4 kmh WNW 3.5 mph5.6 kmh 30.16 in1021.3 mb - 0.00 in0.0 mm 0.00 in0.0 mm
01:35 AM 19.2°F-7.1°C 13.5°F-10.3°C 78% 4.6 mph NW7.4 kmh NW 5.8 mph9.3 kmh 30.15 in1021.0 mb - 0.00 in0.0 mm 0.00 in0.0 mm
01:30 AM 19.3°F-7.1°C 13.6°F-10.2°C 78% 3.5 mph WNW5.6 kmh WNW 9.2 mph14.8 kmh 30.15 in1021.0 mb - 0.00 in0.0 mm 0.00 in0.0 mm
01:25 AM 19.4°F-7.0°C 13.7°F-10.2°C 78% 4.6 mph WNW7.4 kmh WNW 9.2 mph14.8 kmh 30.14 in1020.7 mb - 0.00 in0.0 mm 0.00 in0.0 mm
01:20 AM 19.5°F-6.9°C 13.8°F-10.1°C 78% 4.6 mph WNW7.4 kmh WNW 10.4 mph16.7 kmh 30.14 in1020.7 mb - 0.00 in0.0 mm 0.00 in0.0 mm
01:15 AM 19.7°F-6.8°C 13.7°F-10.2°C 77% 4.6 mph WNW7.4 kmh WNW 6.9 mph11.1 kmh 30.14 in1020.7 mb - 0.00 in0.0 mm 0.00 in0.0 mm
01:10 AM 19.8°F-6.8°C 13.8°F-10.1°C 77% 6.9 mph WNW11.1 kmh WNW 6.9 mph11.1 kmh 30.14 in1020.7 mb - 0.00 in0.0 mm 0.00 in0.0 mm
01:00 AM 20.0°F-6.7°C 13.6°F-10.2°C 76% 5.8 mph NW9.3 kmh NW 10.4 mph16.7 kmh 30.15 in1021.0 mb - 0.00 in0.0 mm 0.00 in0.0 mm
12:55 AM 20.1°F-6.6°C 13.5°F-10.3°C 75% 4.6 mph WNW7.4 kmh WNW 4.6 mph7.4 kmh 30.14 in1020.7 mb - 0.00 in0.0 mm 0.00 in0.0 mm
12:50 AM 20.3°F-6.5°C 13.6°F-10.2°C 75% 4.6 mph WNW7.4 kmh WNW 8.1 mph13.0 kmh 30.14 in1020.7 mb - 0.00 in0.0 mm 0.00 in0.0 mm
12:45 AM 20.4°F-6.4°C 13.7°F-10.2°C 75% 3.5 mph WNW5.6 kmh WNW 11.5 mph18.5 kmh 30.14 in1020.7 mb - 0.00 in0.0 mm 0.00 in0.0 mm
12:40 AM 20.5°F-6.4°C 13.8°F-10.1°C 75% 5.8 mph WNW9.3 kmh WNW 8.1 mph13.0 kmh 30.14 in1020.7 mb - 0.00 in0.0 mm 0.00 in0.0 mm
12:35 AM 20.5°F-6.4°C 13.8°F-10.1°C 75% 6.9 mph WNW11.1 kmh WNW 9.2 mph14.8 kmh 30.14 in1020.7 mb - 0.00 in0.0 mm 0.00 in0.0 mm
12:30 AM 20.6°F-6.3°C 13.7°F-10.2°C 74% 6.9 mph WNW11.1 kmh WNW 9.2 mph14.8 kmh 30.14 in1020.7 mb - 0.00 in0.0 mm 0.00 in0.0 mm
12:25 AM 20.7°F-6.3°C 13.7°F-10.2°C 74% 6.9 mph NW11.1 kmh NW 9.2 mph14.8 kmh 30.14 in1020.7 mb - 0.00 in0.0 mm 0.00 in0.0 mm
12:20 AM 20.8°F-6.2°C 13.8°F-10.1°C 74% 6.9 mph WNW11.1 kmh WNW 9.2 mph14.8 kmh 30.14 in1020.7 mb - 0.00 in0.0 mm 0.00 in0.0 mm
12:15 AM 20.9°F-6.2°C 13.9°F-10.1°C 74% 6.9 mph NW11.1 kmh NW 10.4 mph16.7 kmh 30.14 in1020.7 mb - 0.00 in0.0 mm 0.00 in0.0 mm
12:10 AM 21.0°F-6.1°C 13.7°F-10.2°C 73% 8.1 mph NW13.0 kmh NW 10.4 mph16.7 kmh 30.14 in1020.7 mb - 0.00 in0.0 mm 0.00 in0.0 mm
12:00 AM 21.1°F-6.1°C 13.2°F-10.4°C 71% 5.8 mph NW9.3 kmh NW 8.1 mph13.0 kmh 30.14 in1020.7 mb - 0.00 in0.0 mm 0.00 in0.0 mm